CheckWX is a tool to help pilots better visualize weather data.  It is not intended as a substitute for an official pre-flight weather briefing.

06:58:28 UTC

KTTN TAF
Trenton Mercer Airport
Trenton, New Jersey, USA
KTTN 210538Z 2106/2206 VRB03KT P6SM SCT250 FM211500 26004KT P6SM SCT250 FM212200 VRB03KT P6SM SCT250

Sep-21@
06:00 UTC

Sep-21 @ 06:00 UTC

Sep-21@
15:00 UTC

Sep-21 @ 15:00 UTC

KTTN 210538Z 2106/2206 VRB03KT P6SM SCT250
Wind
  • Variable at 3 KTS
Cloud Levels
  • Scattered at 25,000' AGL

Sep-21@
15:00 UTC

Sep-21 @ 15:00 UTC

Sep-21@
22:00 UTC

Sep-21 @ 22:00 UTC

FM211500 26004KT P6SM SCT250

From

From Standard forecast or significant change

Wind
  • 260° at 4 KTS
Cloud Levels
  • Scattered at 25,000' AGL

Sep-21@
22:00 UTC

Sep-21 @ 22:00 UTC

Sep-22@
06:00 UTC

Sep-22 @ 06:00 UTC

FM212200 VRB03KT P6SM SCT250

From

From Standard forecast or significant change

Wind
  • Variable at 3 KTS
Cloud Levels
  • Scattered at 25,000' AGL